createdAt,value
2022-08-17T00:02:16.363Z,79.16
2022-08-17T00:07:27.417Z,80.04
2022-08-17T00:12:43.682Z,80.75
2022-08-17T00:17:48.044Z,81.15
2022-08-17T00:22:50.057Z,81.50
2022-08-17T00:27:51.956Z,82.07
2022-08-17T00:33:12.249Z,81.98
2022-08-17T00:38:17.877Z,82.74
2022-08-17T00:43:33.520Z,84.05
2022-08-17T00:48:35.289Z,84.68
2022-08-17T00:53:56.263Z,84.36
2022-08-17T00:58:57.949Z,84.62
2022-08-17T01:04:00.047Z,85.15
2022-08-17T01:09:02.053Z,83.70
2022-08-17T01:14:03.781Z,83.77
2022-08-17T01:19:09.279Z,84.96
2022-08-17T01:24:10.949Z,85.02
2022-08-17T01:29:12.714Z,85.12
2022-08-17T01:34:15.167Z,85.71
2022-08-17T01:39:50.355Z,87.06
2022-08-17T01:44:55.197Z,87.78
2022-08-17T01:49:56.885Z,88.05
2022-08-17T01:54:58.534Z,88.67
2022-08-17T02:00:00.469Z,88.81
2022-08-17T02:05:02.165Z,88.95
2022-08-17T02:10:05.485Z,88.49
2022-08-17T02:15:21.597Z,88.00
2022-08-17T02:20:41.778Z,88.70
2022-08-17T02:25:44.843Z,89.08
2022-08-17T02:31:00.992Z,89.15
2022-08-17T02:36:04.965Z,88.66
2022-08-17T02:41:06.761Z,88.90
2022-08-17T02:46:08.471Z,88.79
2022-08-17T02:51:10.161Z,89.11
2022-08-17T02:56:11.831Z,88.68
2022-08-17T03:01:13.649Z,88.88
2022-08-17T03:06:16.664Z,89.01
2022-08-17T03:11:18.337Z,88.98
2022-08-17T03:16:20.005Z,88.20
2022-08-17T03:21:21.670Z,88.17
2022-08-17T03:26:23.332Z,88.39
2022-08-17T03:31:24.997Z,90.47
2022-08-17T03:36:26.708Z,91.15
2022-08-17T03:41:28.413Z,90.96
2022-08-17T03:46:48.610Z,91.27
2022-08-17T03:52:09.127Z,91.50
2022-08-17T03:57:11.025Z,90.44
2022-08-17T04:02:26.869Z,91.00
2022-08-17T04:07:29.776Z,90.83
2022-08-17T04:12:42.351Z,91.90
2022-08-17T04:17:44.285Z,92.43
2022-08-17T04:22:59.544Z,92.11
2022-08-17T04:28:01.464Z,91.68
2022-08-17T04:33:08.666Z,90.70
2022-08-17T04:38:12.656Z,90.22
2022-08-17T04:43:17.562Z,90.13
2022-08-17T04:48:20.798Z,90.45
2022-08-17T04:53:22.462Z,91.46
2022-08-17T04:58:24.243Z,92.24
2022-08-17T05:03:25.931Z,91.90
2022-08-17T05:08:27.683Z,91.51
2022-08-17T05:13:29.756Z,91.14
2022-08-17T05:18:31.502Z,91.94
2022-08-17T05:23:42.078Z,91.89
2022-08-17T05:28:45.079Z,90.89
2022-08-17T05:33:47.735Z,89.77
2022-08-17T05:38:50.557Z,89.60
2022-08-17T05:43:56.197Z,89.82
2022-08-17T05:49:01.605Z,89.18
2022-08-17T05:54:13.168Z,89.09
2022-08-17T05:59:23.772Z,89.03
2022-08-17T06:04:47.973Z,88.50
2022-08-17T06:10:07.801Z,88.33
2022-08-17T06:15:24.855Z,88.22
2022-08-17T06:20:31.966Z,87.78
2022-08-17T06:25:39.036Z,86.98
2022-08-17T06:30:59.633Z,87.14
2022-08-17T06:36:09.667Z,86.48
2022-08-17T06:41:42.882Z,86.16
2022-08-17T06:46:48.531Z,85.17
2022-08-17T06:51:52.054Z,84.72
2022-08-17T06:57:18.866Z,83.91
2022-08-17T07:02:52.332Z,83.12
2022-08-17T07:08:01.736Z,83.25
2022-08-17T07:13:15.206Z,83.07
2022-08-17T07:18:16.868Z,82.35
2022-08-17T07:23:23.029Z,81.77
2022-08-17T07:28:34.920Z,81.16
2022-08-17T07:33:36.829Z,79.89
2022-08-17T07:38:54.762Z,79.43
2022-08-17T07:43:56.449Z,78.65
2022-08-17T07:49:03.050Z,77.00
2022-08-17T07:54:29.482Z,75.12
2022-08-17T07:59:35.645Z,71.88
2022-08-17T08:04:59.730Z,70.75
2022-08-17T08:10:14.061Z,69.68
2022-08-17T08:15:21.803Z,69.52
2022-08-17T08:20:52.306Z,67.73
2022-08-17T08:26:29.567Z,67.78
2022-08-17T08:31:57.574Z,66.44
2022-08-17T08:37:32.732Z,64.79
2022-08-17T08:42:42.802Z,63.00
2022-08-17T08:47:53.713Z,61.98
2022-08-17T08:53:21.268Z,60.57
2022-08-17T08:58:49.125Z,58.46
2022-08-17T09:04:25.011Z,57.63
2022-08-17T09:09:55.127Z,57.15
2022-08-17T09:15:12.727Z,56.07
2022-08-17T09:20:35.527Z,55.99
2022-08-17T09:25:55.256Z,54.66
2022-08-17T09:31:02.925Z,54.77
2022-08-17T09:36:08.383Z,53.59
2022-08-17T09:41:17.601Z,53.87
2022-08-17T09:46:25.714Z,53.47
2022-08-17T09:51:40.098Z,52.26
2022-08-17T09:57:05.904Z,52.11
2022-08-17T10:02:45.714Z,49.82
2022-08-17T10:08:11.185Z,48.91
2022-08-17T10:13:27.933Z,49.11
2022-08-17T10:18:37.631Z,48.82
2022-08-17T10:23:57.632Z,48.33
2022-08-17T10:29:06.620Z,47.68
2022-08-17T10:34:46.084Z,47.25
2022-08-17T10:40:18.066Z,46.45
2022-08-17T10:45:23.402Z,44.58
2022-08-17T10:50:55.596Z,43.46
2022-08-17T10:56:18.006Z,44.45
2022-08-17T11:01:29.347Z,44.39
2022-08-17T11:06:37.195Z,44.59
2022-08-17T11:11:47.667Z,43.53
2022-08-17T11:17:08.012Z,42.02
2022-08-17T11:22:31.298Z,42.98
2022-08-17T11:27:35.293Z,41.10
2022-08-17T11:32:47.802Z,40.39
2022-08-17T11:38:18.377Z,39.70
2022-08-17T11:43:48.404Z,37.81
2022-08-17T11:49:11.841Z,36.21
2022-08-17T11:54:33.231Z,36.06
2022-08-17T11:59:45.780Z,36.44
2022-08-17T12:05:12.814Z,35.15
2022-08-17T12:10:17.180Z,35.13
2022-08-17T12:15:21.960Z,34.85
2022-08-17T12:20:34.992Z,34.27
2022-08-17T12:25:36.501Z,34.55
2022-08-17T12:30:38.391Z,33.61
2022-08-17T12:35:40.137Z,32.51
2022-08-17T12:40:53.286Z,32.25
2022-08-17T12:45:57.221Z,31.02
2022-08-17T12:51:00.479Z,31.11
2022-08-17T12:56:02.429Z,30.10
2022-08-17T13:01:09.488Z,31.27
2022-08-17T13:06:14.247Z,30.23
2022-08-17T13:11:18.472Z,30.17
2022-08-17T13:16:27.895Z,31.71
2022-08-17T13:21:30.580Z,31.03
2022-08-17T13:26:38.408Z,30.53
2022-08-17T13:31:49.792Z,30.91
2022-08-17T13:37:29.820Z,30.40
2022-08-17T13:42:50.571Z,31.13
2022-08-17T13:48:13.502Z,30.75
2022-08-17T13:53:17.670Z,30.58
2022-08-17T13:58:27.550Z,31.10
2022-08-17T14:03:29.228Z,31.99
2022-08-17T14:08:30.927Z,33.17
2022-08-17T14:13:32.579Z,32.66
2022-08-17T14:18:55.762Z,33.32
2022-08-17T14:23:55.876Z,33.16
2022-08-17T14:28:57.540Z,33.14
2022-08-17T14:33:59.769Z,33.29
2022-08-17T14:39:01.420Z,33.60
2022-08-17T14:44:04.240Z,34.25
2022-08-17T14:49:05.972Z,34.90
2022-08-17T14:54:07.779Z,35.10
2022-08-17T14:59:09.424Z,35.16
2022-08-17T15:04:14.818Z,36.17
2022-08-17T15:09:16.897Z,36.47
2022-08-17T15:14:19.194Z,36.79
2022-08-17T15:19:20.850Z,36.84
2022-08-17T15:24:22.499Z,37.49
2022-08-17T15:29:24.147Z,37.30
2022-08-17T15:34:25.792Z,40.68
2022-08-17T15:39:27.473Z,42.68
2022-08-17T15:44:32.509Z,44.47
2022-08-17T15:49:39.177Z,44.09
2022-08-17T15:54:40.840Z,40.84
2022-08-17T15:59:47.356Z,41.34
2022-08-17T16:05:03.303Z,43.44
2022-08-17T16:10:06.635Z,49.09
2022-08-17T16:15:08.845Z,50.57
2022-08-17T16:20:20.069Z,51.35
2022-08-17T16:25:38.830Z,51.97
2022-08-17T16:30:47.823Z,56.94
2022-08-17T16:35:49.492Z,73.67
2022-08-17T16:40:51.161Z,81.87
2022-08-17T16:45:52.839Z,89.72
2022-08-17T16:51:03.126Z,94.62
2022-08-17T16:56:07.359Z,96.12
2022-08-17T17:01:09.043Z,97.20
2022-08-17T17:06:18.599Z,97.96
2022-08-17T17:11:26.844Z,94.87
2022-08-17T17:16:28.517Z,94.97
2022-08-17T17:21:37.746Z,95.79
2022-08-17T17:26:48.380Z,94.36
2022-08-17T17:32:05.795Z,92.27
2022-08-17T17:37:10.737Z,90.99
2022-08-17T17:42:20.244Z,91.53
2022-08-17T17:47:22.131Z,90.58
2022-08-17T17:52:36.030Z,89.40
2022-08-17T17:58:00.877Z,88.09
2022-08-17T18:03:08.213Z,86.88
2022-08-17T18:08:32.184Z,85.93
2022-08-17T18:14:23.318Z,87.75
2022-08-17T18:19:26.246Z,86.48
2022-08-17T18:24:42.033Z,87.99
2022-08-17T18:29:44.646Z,87.20
2022-08-17T18:34:48.734Z,88.46
2022-08-17T18:39:50.687Z,90.54
2022-08-17T18:44:55.174Z,91.97
2022-08-17T18:50:00.436Z,94.82
2022-08-17T18:55:22.661Z,97.38
2022-08-17T19:00:37.112Z,95.81
2022-08-17T19:05:40.512Z,95.24
2022-08-17T19:10:46.261Z,95.52
2022-08-17T19:16:14.891Z,95.64
2022-08-17T19:21:29.477Z,97.07
2022-08-17T19:26:54.549Z,97.20
2022-08-17T19:31:58.689Z,98.79
2022-08-17T19:37:06.888Z,98.78
2022-08-17T19:42:24.983Z,98.53
2022-08-17T19:47:54.248Z,99.09
2022-08-17T19:53:17.519Z,99.12
2022-08-17T19:58:44.947Z,98.68
2022-08-17T20:03:52.965Z,98.91
2022-08-17T20:09:24.496Z,98.83
2022-08-17T20:14:39.495Z,99.34
2022-08-17T20:20:03.984Z,99.40
2022-08-17T20:25:13.823Z,98.86
2022-08-17T20:30:34.035Z,99.73
2022-08-17T20:35:38.700Z,99.24
2022-08-17T20:41:00.953Z,98.93
2022-08-17T20:46:17.868Z,99.67
2022-08-17T20:51:31.462Z,99.93
2022-08-17T20:56:46.338Z,98.57
2022-08-17T21:02:18.283Z,98.74
2022-08-17T21:07:42.613Z,99.14
2022-08-17T21:12:49.942Z,98.63
2022-08-17T21:18:03.450Z,98.05
2022-08-17T21:23:40.292Z,98.95
2022-08-17T21:29:00.794Z,99.34
2022-08-17T21:34:15.126Z,98.88
2022-08-17T21:39:21.444Z,98.66
2022-08-17T21:44:33.832Z,98.74
2022-08-17T21:49:37.996Z,99.08
2022-08-17T21:54:42.497Z,99.64
2022-08-17T21:59:44.262Z,100.00
2022-08-17T22:04:56.883Z,100.00
2022-08-17T22:09:58.816Z,100.00
2022-08-17T22:15:02.304Z,100.00
2022-08-17T22:20:17.246Z,100.00
2022-08-17T22:25:22.418Z,100.00
2022-08-17T22:30:37.936Z,100.00
2022-08-17T22:35:43.150Z,100.00
2022-08-17T22:40:55.825Z,100.00
2022-08-17T22:45:58.656Z,100.00
2022-08-17T22:51:12.874Z,100.00
2022-08-17T22:56:36.265Z,100.00
2022-08-17T23:01:39.063Z,100.00
2022-08-17T23:06:43.787Z,100.00
2022-08-17T23:11:50.037Z,100.00
2022-08-17T23:16:52.083Z,100.00
2022-08-17T23:21:56.706Z,100.00
2022-08-17T23:26:58.931Z,100.00
2022-08-17T23:32:01.274Z,100.00
2022-08-17T23:37:04.310Z,100.00
2022-08-17T23:42:08.058Z,100.00
2022-08-17T23:47:10.419Z,100.00
2022-08-17T23:52:15.296Z,100.00
2022-08-17T23:57:19.364Z,100.00
